Aeroporto :
LOGIN :

Iscrizione | Disclaimer

   EN    FR    IT 

 










Sommario :    VFR   VFR Marginale   IFR   IFR Intensivo   IFR Molto Intensivo
Visibilità : 
Base nubi : 
>= 8 km
>= 3000ft
5 / 8 km
1000 / 3000 ft
1500m / 5 km
500 / 1000 ft
800 / 1500m
200 / 500 ft
< 800m
< 200 ft
Simboli :   Temporali  Nebbia  Neve Forte  Precipitazioni Forti  Vento > 20 kt
SIGMETs :   Varie  Temporali  Ghiacco  Turbolenza  Onda orograficha  Ceneri Vulcaniche






- Altitudine del aeroporto : 79 ft
- Codice IATA : SPU


LDSP - Split

ULTIMO METAR :
  • 221330Z 30011KT CAVOK 12/02 Q1031 NOSIG

METARs OBSOLETI :
  • 221300Z 31009KT CAVOK 12/01 Q1031 NOSIG
  • 221230Z 33006KT 280V010 CAVOK 13/02 Q1032 NOSIG
  • 221200Z 29006KT 240V350 CAVOK 12/01 Q1032 NOSIG
  • 221130Z 32007KT 280V360 CAVOK 12/01 Q1033 NOSIG
  • 221100Z VRB03KT CAVOK 11/02 Q1033 NOSIG

TAF TAF LDSP
Valido dal 22 a 12 ore il 23 a 12 ore UTC


221125Z 2212/2312 31007KT CAVOK TX12/2212Z TN03/2306Z



MetMap, La meteo Aeronautica in un colpo d'occhio ! - Copyright ORBIFLY Dicembre 2007 - Disclaimer

ORBIFLY MET'MAP TEAM :

Programmazione e sviluppo : Alexandra Zaïnal
Concezione : Baudouin d'Aumeries
Aiuto per la programmazione : Marc-Olivier Méhu
Supporto tecnico e logistico : Manuel Goepfert
Aiuto per la traduzione : Arnaldo La Scala

Contatto : metmap@orbifly.com




FONTI E CREDITI :

   NOAA